Terminal Aerodrome Forecast
Issued by NWS Melbourne, FL

Current Version | Previous Version | Text Only | Print | Product List | Glossary On
Versions: 1 2 3 4 5 6 7 8 9 10 11 12 13 14 15 16
000
FTUS42 KMLB 162000 AAA
TAFDAB
TAF AMD
KDAB 162016Z 1620/1718 28008KT P6SM VCSH SCT040 SCT120 BKN250
      TEMPO 1620/1622 3SM TSRA BKN030CB OVC050
     FM170000 26004KT P6SM SCT080 OVC150
     FM171400 25010KT P6SM FEW020 SCT120 SCT250=

USA.gov is the U.S. government's official web portal to all federal, state and local government web resources and services.